createdAt,value
2023-04-07T00:02:27.315Z,2.15
2023-04-07T00:07:29.608Z,2.00
2023-04-07T00:12:31.816Z,2.20
2023-04-07T00:17:34.018Z,1.98
2023-04-07T00:22:36.106Z,2.47
2023-04-07T00:27:38.748Z,2.55
2023-04-07T00:32:41.249Z,1.98
2023-04-07T00:37:43.675Z,2.42
2023-04-07T00:42:45.884Z,2.42
2023-04-07T00:47:48.040Z,1.95
2023-04-07T00:52:50.795Z,2.28
2023-04-07T00:57:52.960Z,1.70
2023-04-07T01:03:04.577Z,2.10
2023-04-07T01:08:33.146Z,2.00
2023-04-07T01:13:50.595Z,2.25
2023-04-07T01:19:33.663Z,1.92
2023-04-07T01:24:54.865Z,2.22
2023-04-07T01:30:01.172Z,1.98
2023-04-07T01:35:06.392Z,1.98
2023-04-07T01:40:09.778Z,1.80
2023-04-07T01:45:12.178Z,1.63
2023-04-07T01:50:14.615Z,2.08
2023-04-07T01:55:17.181Z,1.80
2023-04-07T02:00:29.555Z,1.85
2023-04-07T02:05:33.971Z,1.80
2023-04-07T02:10:38.753Z,2.15
2023-04-07T02:15:42.497Z,1.70
2023-04-07T02:20:46.390Z,2.00
2023-04-07T02:25:48.684Z,1.63
2023-04-07T02:30:50.928Z,1.83
2023-04-07T02:35:53.086Z,1.80
2023-04-07T02:40:56.605Z,1.60
2023-04-07T02:45:58.766Z,1.70
2023-04-07T02:51:00.958Z,1.63
2023-04-07T02:56:03.130Z,1.60
2023-04-07T03:01:05.878Z,1.75
2023-04-07T03:06:09.808Z,1.40
2023-04-07T03:11:21.048Z,1.70
2023-04-07T03:16:23.302Z,1.50
2023-04-07T03:21:38.135Z,1.67
2023-04-07T03:26:40.390Z,1.63
2023-04-07T03:31:51.623Z,1.83
2023-04-07T03:36:57.174Z,1.70
2023-04-07T03:41:59.507Z,1.60
2023-04-07T03:47:04.951Z,1.83
2023-04-07T03:52:08.686Z,1.63
2023-04-07T03:57:11.874Z,1.80
2023-04-07T04:02:19.779Z,1.63
2023-04-07T04:07:27.399Z,1.75
2023-04-07T04:12:34.496Z,1.70
2023-04-07T04:17:44.199Z,1.67
2023-04-07T04:22:47.879Z,1.98
2023-04-07T04:27:50.464Z,1.67
2023-04-07T04:32:56.423Z,1.83
2023-04-07T04:38:07.942Z,1.50
2023-04-07T04:43:12.640Z,1.58
2023-04-07T04:48:17.397Z,1.83
2023-04-07T04:53:19.962Z,1.58
2023-04-07T04:58:31.296Z,1.40
2023-04-07T05:03:33.682Z,1.20
2023-04-07T05:08:39.253Z,1.77
2023-04-07T05:13:42.196Z,2.03
2023-04-07T05:18:44.301Z,1.70
2023-04-07T05:23:46.846Z,1.63
2023-04-07T05:28:49.553Z,1.50
2023-04-07T05:39:01.552Z,1.30
2023-04-07T05:44:04.149Z,1.67
2023-04-07T05:49:19.481Z,1.88
2023-04-07T05:54:25.726Z,2.15
2023-04-07T05:59:28.596Z,2.25
2023-04-07T06:04:31.603Z,2.10
2023-04-07T06:09:35.870Z,2.13
2023-04-07T06:14:38.727Z,2.28
2023-04-07T06:19:41.085Z,1.98
2023-04-07T06:24:43.512Z,1.98
2023-04-07T06:29:45.707Z,2.17
2023-04-07T06:34:48.257Z,2.03
2023-04-07T06:39:50.759Z,2.30
2023-04-07T06:44:53.765Z,2.20
2023-04-07T06:49:55.965Z,2.05
2023-04-07T06:54:58.073Z,2.03
2023-04-07T07:00:00.610Z,1.80
2023-04-07T07:05:04.755Z,1.80
2023-04-07T07:10:10.968Z,2.33
2023-04-07T07:15:13.093Z,1.88
2023-04-07T07:20:15.333Z,1.80
2023-04-07T07:25:17.445Z,1.58
2023-04-07T07:30:21.503Z,1.77
2023-04-07T07:35:25.250Z,1.88
2023-04-07T07:40:27.273Z,1.55
2023-04-07T07:45:29.409Z,1.40
2023-04-07T07:50:31.728Z,1.48
2023-04-07T07:55:33.850Z,1.40
2023-04-07T08:00:36.128Z,1.20
2023-04-07T08:05:38.285Z,1.60
2023-04-07T08:10:40.441Z,1.42
2023-04-07T08:15:42.901Z,1.30
2023-04-07T08:20:44.994Z,1.40
2023-04-07T08:25:47.032Z,1.50
2023-04-07T08:30:49.190Z,1.25
2023-04-07T08:35:51.280Z,1.40
2023-04-07T08:41:01.380Z,1.48
2023-04-07T08:46:04.139Z,1.40
2023-04-07T08:51:10.843Z,1.35
2023-04-07T08:56:13.324Z,1.30
2023-04-07T09:01:16.618Z,1.60
2023-04-07T09:06:18.753Z,1.70
2023-04-07T09:11:22.464Z,1.63
2023-04-07T09:16:25.651Z,1.23
2023-04-07T09:21:46.742Z,1.20
2023-04-07T09:26:50.070Z,1.20
2023-04-07T09:31:53.542Z,1.00
2023-04-07T09:36:57.404Z,1.00
2023-04-07T09:42:06.662Z,1.35
2023-04-07T09:47:08.807Z,1.00
2023-04-07T09:52:11.171Z,0.80
2023-04-07T09:57:18.629Z,0.75
2023-04-07T10:02:23.113Z,1.42
2023-04-07T10:07:26.117Z,0.90
2023-04-07T10:12:31.250Z,1.15
2023-04-07T10:17:36.236Z,1.02
2023-04-07T10:22:41.400Z,1.33
2023-04-07T10:28:03.792Z,1.10
2023-04-07T10:33:06.103Z,1.27
2023-04-07T10:38:08.363Z,1.50
2023-04-07T10:43:15.033Z,1.70
2023-04-07T10:48:18.619Z,1.30
2023-04-07T10:53:20.791Z,1.40
2023-04-07T10:58:26.645Z,1.40
2023-04-07T11:08:40.033Z,1.30
2023-04-07T11:13:49.227Z,1.30
2023-04-07T11:18:57.671Z,1.15
2023-04-07T11:23:59.819Z,0.75
2023-04-07T11:29:02.246Z,1.13
2023-04-07T11:34:05.244Z,1.10
2023-04-07T11:39:20.372Z,1.10
2023-04-07T11:44:22.674Z,0.82
2023-04-07T11:49:27.938Z,0.70
2023-04-07T11:54:47.308Z,1.00
2023-04-07T11:59:50.285Z,1.00
2023-04-07T12:04:57.530Z,1.00
2023-04-07T12:10:18.738Z,1.08
2023-04-07T12:15:21.692Z,1.65
2023-04-07T12:20:23.790Z,1.80
2023-04-07T12:25:27.658Z,1.35
2023-04-07T12:30:29.763Z,1.30
2023-04-07T12:35:32.383Z,1.45
2023-04-07T12:40:36.357Z,1.20
2023-04-07T12:45:39.412Z,1.40
2023-04-07T12:50:41.649Z,1.00
2023-04-07T12:55:43.709Z,1.00
2023-04-07T13:00:47.770Z,1.08
2023-04-07T13:05:50.275Z,1.58
2023-04-07T13:10:52.372Z,0.90
2023-04-07T13:15:54.704Z,1.20
2023-04-07T13:21:24.920Z,1.10
2023-04-07T13:26:18.960Z,1.50
2023-04-07T13:31:22.191Z,1.35
2023-04-07T13:36:26.351Z,1.92
2023-04-07T13:41:28.455Z,1.20
2023-04-07T13:46:30.762Z,1.38
2023-04-07T13:51:32.971Z,1.30
2023-04-07T13:56:41.169Z,1.08
2023-04-07T14:01:43.464Z,1.13
2023-04-07T14:06:45.588Z,1.05
2023-04-07T14:11:48.441Z,1.00
2023-04-07T14:16:53.401Z,1.20
2023-04-07T14:21:55.916Z,0.97
2023-04-07T14:26:58.313Z,1.08
2023-04-07T14:32:00.424Z,0.95
2023-04-07T14:37:03.451Z,0.90
2023-04-07T14:42:05.590Z,0.90
2023-04-07T14:47:07.683Z,1.10
2023-04-07T14:52:10.579Z,1.10
2023-04-07T14:57:12.701Z,0.93
2023-04-07T15:02:14.850Z,1.00
2023-04-07T15:07:17.076Z,1.23
2023-04-07T15:12:19.585Z,1.23
2023-04-07T15:17:27.518Z,1.40
2023-04-07T15:22:36.101Z,1.30
2023-04-07T15:27:38.220Z,1.00
2023-04-07T15:32:40.453Z,0.93
2023-04-07T15:37:43.303Z,1.00
2023-04-07T15:42:45.892Z,1.30
2023-04-07T15:47:48.022Z,1.25
2023-04-07T15:52:50.248Z,1.10
2023-04-07T15:57:53.297Z,0.90
2023-04-07T16:02:55.821Z,0.77
2023-04-07T16:07:58.445Z,1.25
2023-04-07T16:13:00.616Z,1.10
2023-04-07T16:18:06.619Z,1.25
2023-04-07T16:23:09.653Z,1.27
2023-04-07T16:28:11.831Z,1.20
2023-04-07T16:33:14.550Z,0.95
2023-04-07T16:38:16.966Z,1.08
2023-04-07T16:43:19.661Z,1.25
2023-04-07T16:48:21.749Z,1.10
2023-04-07T16:53:23.837Z,0.90
2023-04-07T16:58:26.024Z,1.50
2023-04-07T17:03:28.293Z,1.58
2023-04-07T17:08:30.671Z,1.50
2023-04-07T17:13:32.966Z,1.40
2023-04-07T17:18:35.215Z,1.17
2023-04-07T17:23:37.502Z,1.10
2023-04-07T17:28:40.791Z,1.20
2023-04-07T17:33:43.095Z,1.05
2023-04-07T17:38:46.084Z,1.10
2023-04-07T17:43:48.378Z,1.10
2023-04-07T17:48:51.474Z,0.98
2023-04-07T17:53:54.287Z,0.70
2023-04-07T17:58:56.820Z,1.10
2023-04-07T18:04:00.243Z,0.82
2023-04-07T18:09:04.588Z,1.15
2023-04-07T18:14:06.689Z,1.13
2023-04-07T18:19:08.947Z,1.50
2023-04-07T18:24:11.549Z,1.08
2023-04-07T18:29:14.804Z,1.35
2023-04-07T18:34:16.967Z,0.90
2023-04-07T18:39:19.273Z,1.00
2023-04-07T18:44:21.391Z,1.00
2023-04-07T18:49:24.540Z,1.17
2023-04-07T18:54:28.567Z,0.95
2023-04-07T18:59:31.480Z,1.27
2023-04-07T19:04:33.603Z,0.90
2023-04-07T19:09:36.810Z,1.10
2023-04-07T19:14:38.923Z,1.00
2023-04-07T19:19:41.176Z,1.08
2023-04-07T19:24:43.274Z,1.02
2023-04-07T19:29:45.385Z,0.82
2023-04-07T19:34:47.464Z,1.30
2023-04-07T19:40:01.585Z,1.05
2023-04-07T19:45:08.242Z,1.98
2023-04-07T19:50:17.668Z,1.27
2023-04-07T19:55:20.048Z,1.85
2023-04-07T20:00:22.284Z,1.33
2023-04-07T20:05:24.344Z,1.30
2023-04-07T20:10:26.579Z,2.35
2023-04-07T20:15:28.803Z,1.30
2023-04-07T20:20:31.200Z,1.30
2023-04-07T20:25:34.876Z,1.75
2023-04-07T20:30:37.067Z,1.58
2023-04-07T20:35:39.185Z,2.03
2023-04-07T20:40:41.711Z,2.35
2023-04-07T20:45:44.717Z,2.53
2023-04-07T20:50:46.919Z,1.88
2023-04-07T20:55:49.123Z,2.30
2023-04-07T21:00:58.298Z,2.70
2023-04-07T21:06:00.552Z,3.58
2023-04-07T21:11:02.683Z,2.70
2023-04-07T21:16:05.746Z,1.10
2023-04-07T21:21:08.261Z,1.75
2023-04-07T21:26:10.556Z,1.65
2023-04-07T21:31:23.865Z,1.77
2023-04-07T21:36:27.149Z,1.50
2023-04-07T21:41:29.232Z,1.20
2023-04-07T21:46:33.225Z,1.23
2023-04-07T21:51:35.347Z,1.00
2023-04-07T21:56:37.479Z,1.08
2023-04-07T22:01:39.692Z,0.95
2023-04-07T22:06:41.874Z,1.08
2023-04-07T22:11:43.967Z,1.20
2023-04-07T22:16:46.260Z,1.10
2023-04-07T22:21:49.494Z,1.35
2023-04-07T22:26:53.854Z,1.08
2023-04-07T22:31:56.041Z,1.30
2023-04-07T22:36:58.144Z,1.38
2023-04-07T22:42:01.020Z,1.35
2023-04-07T22:47:04.278Z,1.50
2023-04-07T22:52:06.702Z,1.33
2023-04-07T22:57:08.960Z,1.30
2023-04-07T23:02:11.307Z,1.40
2023-04-07T23:07:13.456Z,1.00
2023-04-07T23:12:15.713Z,1.33
2023-04-07T23:17:17.840Z,1.20
2023-04-07T23:22:20.092Z,1.45
2023-04-07T23:27:22.184Z,1.48
2023-04-07T23:32:24.391Z,1.30
2023-04-07T23:37:26.458Z,1.63
2023-04-07T23:42:28.563Z,1.33
2023-04-07T23:47:30.929Z,1.30
2023-04-07T23:52:33.115Z,1.00
2023-04-07T23:57:35.239Z,1.20
